Mc Queeney, Texas
Current Conditions -  °F | °C
As of 8:51 PM on Friday 31 Oct 2014 (Local Time) from KBAZ Reporting Station
Clear Clear  
Wind Chill: 62°   Ceiling: Unl
Heat Index: 62°   Visibility: 10mi
Dew Point: 41°   Wind: 9mph
Humidity: 46%   Direction: 40°NE
Pressure: 30.26"   Gusts: NA
Location:  29.6006°N, 98.0277°W
Report Text: KBAZ 010151Z AUTO 04008KT 10SM CLR 17/05 A3026 RMK AO2 SLP243 T01670050
Loading
Personal Weather Stations






























Interactive Weather Map
Tropical Storm Tracking
New forecast layout! Learn more

10-Day Weather Forecast

Advertisements
Track Severe Weather on mobile